The World — C6RW4 — position and weather

sailwx.info

Track history (hours):
 
Tides and Currents Weather Stations Pressure Air Temp Water Temp Dewpoint Dewpoint Depression Visibility Wind Speed Wind Dir Waves Ship Positions

The World

Operator: Bergshav-Norway

Last reported at 2018-Apr-26 03:18 UTC. Time now 2018-Apr-26 19:11 UTC.
Position N 41°28' E 003°01'.

Length 196 m; draft 7 m.

Type: Passenger vessel. MMSI: 311213000.

Date/timePositionNaut miles runAvg speedWind from/ knotsBaromVisibWave heightAir tempDewpointWater temp
2018-Apr-26 03:18N 41°28' E 003°01'3 7.4
2018-Apr-26 02:51N 41°26' E 002°58'3 7.7
2018-Apr-26 02:25N 41°24' E 002°54'3 8.1
2018-Apr-26 02:00N 41°22' E 002°50'4 8.1
2018-Apr-26 01:30N 41°21' E 002°45'4 8.3
2018-Apr-26 01:00N 41°19' E 002°40'4 8.1
2018-Apr-26 00:30N 41°18' E 002°35'4 8.0
2018-Apr-26 00:00N 41°18' E 002°29'4 8.1
2018-Apr-25 23:30N 41°19' E 002°24'4 8.2
2018-Apr-25 23:00N 41°19' E 002°19'4 7.4
2018-Apr-25 22:30N 41°20' E 002°14'3 6.6
2018-Apr-25 22:01N 41°22' E 002°11'0 0.2
2018-Apr-25 21:15N 41°22' E 002°11'0 0.0
2018-Apr-25 20:57N 41°22' E 002°11'0 0.0
2018-Apr-25 20:27N 41°22' E 002°11'0 0.0
2018-Apr-25 19:45N 41°22' E 002°11'0 0.0
2018-Apr-25 19:27N 41°22' E 002°11'0 0.0
2018-Apr-25 18:57N 41°22' E 002°11'0 0.0
2018-Apr-25 18:15N 41°22' E 002°11'0 0.0
2018-Apr-25 17:57N 41°22' E 002°11'0 0.0
2018-Apr-25 17:21N 41°22' E 002°11'0 0.0
2018-Apr-25 16:51N 41°22' E 002°11'0 0.0
2018-Apr-25 15:39N 41°22' E 002°11'0 0.0
2018-Apr-25 15:27N 41°22' E 002°11'0 0.0
2018-Apr-25 14:57N 41°22' E 002°11'0 0.0
2018-Apr-25 14:27N 41°22' E 002°11'0 0.0
2018-Apr-25 13:51N 41°22' E 002°11'0 0.0
2018-Apr-25 13:21N 41°22' E 002°11'0 0.0
2018-Apr-25 11:57N 41°22' E 002°11'0 0.0
2018-Apr-25 11:09N 41°22' E 002°11'0 0.0
2018-Apr-25 10:57N 41°22' E 002°11'0 0.0
2018-Apr-25 05:15N 41°22' E 002°11'0 0.0
2018-Apr-25 03:03N 41°22' E 002°11'0 0.0
2018-Apr-25 02:57N 41°22' E 002°11'0 0.0
2018-Apr-24 18:45N 41°22' E 002°11'0 0.0
2018-Apr-24 17:45N 41°22' E 002°11'0 0.0
2018-Apr-24 15:33N 41°22' E 002°11'0 0.0
2018-Apr-24 15:21N 41°22' E 002°11'0 0.0
2018-Apr-24 14:51N 41°22' E 002°11'0 0.0
2018-Apr-24 14:27N 41°22' E 002°11'0 0.0
2018-Apr-24 13:57N 41°22' E 002°11'0 0.0
2018-Apr-24 13:15N 41°22' E 002°11'0 0.0
2018-Apr-24 12:51N 41°22' E 002°11'0 0.0
2018-Apr-24 12:27N 41°22' E 002°11'0 0.0
2018-Apr-24 11:57N 41°22' E 002°11'0 0.0
2018-Apr-24 11:27N 41°22' E 002°11'0 0.0
2018-Apr-24 10:57N 41°22' E 002°11'0 0.0
2018-Apr-24 10:27N 41°22' E 002°11'0 0.0
2018-Apr-24 09:57N 41°22' E 002°11'0 0.0
2018-Apr-24 09:27N 41°22' E 002°11'0 0.0
2018-Apr-24 08:57N 41°22' E 002°11'0 0.0
2018-Apr-24 08:27N 41°22' E 002°11'0 0.0
2018-Apr-24 07:51N 41°22' E 002°11'0 0.0
2018-Apr-24 07:27N 41°22' E 002°11'0 0.0
2018-Apr-24 06:51N 41°22' E 002°11'0 0.0
2018-Apr-24 01:33N 41°22' E 002°11'0 0.0
2018-Apr-24 01:27N 41°22' E 002°11'0 0.0
2018-Apr-24 00:57N 41°22' E 002°11'0 0.0
2018-Apr-24 00:27N 41°22' E 002°11'0 0.0
2018-Apr-23 23:57N 41°22' E 002°11'0 0.0
2018-Apr-23 23:27N 41°22' E 002°11'0 0.0
2018-Apr-23 22:57N 41°22' E 002°11'0 0.0
2018-Apr-23 22:27N 41°22' E 002°11'0 0.0
2018-Apr-23 21:51N 41°22' E 002°11'0 0.0
2018-Apr-23 21:27N 41°22' E 002°11'0 0.0
2018-Apr-23 20:39N 41°22' E 002°11'0 0.0
2018-Apr-23 20:27N 41°22' E 002°11'0 0.0
2018-Apr-23 19:57N 41°22' E 002°11'0 0.0
2018-Apr-23 19:03N 41°22' E 002°11'0 0.0
2018-Apr-23 18:57N 41°22' E 002°11'0 0.0
2018-Apr-23 18:27N 41°22' E 002°11'0 0.0
2018-Apr-23 17:57N 41°22' E 002°11'0 0.0
2018-Apr-23 17:21N 41°22' E 002°11'0 0.0
2018-Apr-23 16:57N 41°22' E 002°11'0 0.0
2018-Apr-23 16:27N 41°22' E 002°11'0 0.0
2018-Apr-23 15:51N 41°22' E 002°11'0 0.0
2018-Apr-23 15:27N 41°22' E 002°11'0 0.0
2018-Apr-23 14:57N 41°22' E 002°11'0 0.0
2018-Apr-23 14:27N 41°22' E 002°11'0 0.0
2018-Apr-23 13:51N 41°22' E 002°11'0 0.0
2018-Apr-23 13:27N 41°22' E 002°11'0 0.0
2018-Apr-23 12:57N 41°22' E 002°11'0 0.0
2018-Apr-23 12:27N 41°22' E 002°11'0 0.0
2018-Apr-23 11:57N 41°22' E 002°11'0 0.0
2018-Apr-23 11:21N 41°22' E 002°11'0 0.0
2018-Apr-23 10:57N 41°22' E 002°11'0 0.0
2018-Apr-23 10:27N 41°22' E 002°11'0 0.0
2018-Apr-23 09:57N 41°22' E 002°11'0 0.0
2018-Apr-23 09:27N 41°22' E 002°11'0 0.0
2018-Apr-23 08:57N 41°22' E 002°11'0 0.0
2018-Apr-23 08:27N 41°22' E 002°11'0 0.0
2018-Apr-23 07:51N 41°22' E 002°11'0 0.0
2018-Apr-23 07:27N 41°22' E 002°11'0 0.0
2018-Apr-23 06:57N 41°22' E 002°11'0 0.0
2018-Apr-23 06:27N 41°22' E 002°11'0 0.0
2018-Apr-23 05:45N 41°22' E 002°11'0 0.0
2018-Apr-23 04:39N 41°22' E 002°11'0 0.0
2018-Apr-23 04:27N 41°22' E 002°11'0 0.0
2018-Apr-23 03:09N 41°22' E 002°11'0 0.0
2018-Apr-23 00:09N 41°22' E 002°11'0 0.0
2018-Apr-22 23:51N 41°22' E 002°11'0 0.0
2018-Apr-22 23:27N 41°22' E 002°11'0 0.0
2018-Apr-22 22:57N 41°22' E 002°11'0 0.0
2018-Apr-22 22:27N 41°22' E 002°11'0 0.0
2018-Apr-22 21:57N 41°22' E 002°11'0 0.0
2018-Apr-22 21:27N 41°22' E 002°11'0 0.0
2018-Apr-22 20:45N 41°22' E 002°11'0 0.0
2018-Apr-22 20:27N 41°22' E 002°11'0 0.0
2018-Apr-22 19:27N 41°22' E 002°11'0 0.0
2018-Apr-22 18:45N 41°22' E 002°11'0 0.0
2018-Apr-22 18:21N 41°22' E 002°11'0 0.0
2018-Apr-22 17:57N 41°22' E 002°11'0 0.0
2018-Apr-22 17:27N 41°22' E 002°11'0 0.0
2018-Apr-22 16:45N 41°22' E 002°11'0 0.0
2018-Apr-22 16:21N 41°22' E 002°11'0 0.0
2018-Apr-22 15:57N 41°22' E 002°11'0 0.0
2018-Apr-22 15:27N 41°22' E 002°11'0 0.0
2018-Apr-22 13:45N 41°22' E 002°11'0 0.0
2018-Apr-22 13:21N 41°22' E 002°11'0 0.0
2018-Apr-22 12:57N 41°22' E 002°11'0 0.0
2018-Apr-22 12:27N 41°22' E 002°11'0 0.0
2018-Apr-22 11:57N 41°22' E 002°11'0 0.0
2018-Apr-22 11:27N 41°22' E 002°11'0 0.0
2018-Apr-22 11:01N 41°22' E 002°11'0 0.0
2018-Apr-22 10:29N 41°22' E 002°11'0 0.0
2018-Apr-22 09:11N 41°22' E 002°11'0 0.0
2018-Apr-22 08:52N 41°22' E 002°11'0 0.0
2018-Apr-22 08:22N 41°22' E 002°11'0 0.0
2018-Apr-22 07:46N 41°22' E 002°11'0 0.0
2018-Apr-22 07:28N 41°22' E 002°11'0 0.0
2018-Apr-22 06:58N 41°22' E 002°11'0 0.0
2018-Apr-22 06:27N 41°22' E 002°11'1 3.3
2018-Apr-22 06:01N 41°21' E 002°12'5 9.1
2018-Apr-22 05:31N 41°18' E 002°16'4 8.1
2018-Apr-22 04:59N 41°14' E 002°19'4 9.0
2018-Apr-22 04:31N 41°10' E 002°18'4 8.8
2018-Apr-22 04:01N 41°05' E 002°18'5 8.4
2018-Apr-22 03:21N 41°00' E 002°16'202 9.3
2018-Apr-21 05:33N 38°09' W 000°02'1 9.7
2018-Apr-21 05:28N 38°08' W 000°02'4 9.4
2018-Apr-21 05:01N 38°04' W 000°05'5 9.1
2018-Apr-21 04:29N 38°00' W 000°08'11 9.3
2018-Apr-21 03:16N 37°51' W 000°17'7 9.3
2018-Apr-21 02:34N 37°45' W 000°21'1 9.3
2018-Apr-21 02:28N 37°44' W 000°22'4 9.4
2018-Apr-21 02:01N 37°41' W 000°25'5 9.3
2018-Apr-21 01:31N 37°37' W 000°28'4 8.9
2018-Apr-21 01:01N 37°33' W 000°31'4 8.6
2018-Apr-21 00:31N 37°31' W 000°35'5 9.3
2018-Apr-21 00:01N 37°30' W 000°41'5 8.7
2018-Apr-20 23:28N 37°30' W 000°47'11 8.4
2018-Apr-20 22:11N 37°34' W 000°59'  
2018-Apr-18 15:15N 37°36' W 000°59'9 9.1
2018-Apr-18 14:19N 37°28' W 001°05'310.6
2018-Apr-18 13:59N 37°26' W 001°07'  
Track history (hours):
 
Tides and Currents Weather Stations Pressure Air Temp Water Temp Dewpoint Dewpoint Depression Visibility Wind Speed Wind Dir Waves Ship Positions

The World

Operator: Bergshav-Norway

Last reported at 2018-Apr-26 03:18 UTC. Time now 2018-Apr-26 19:11 UTC.
Position N 41°28' E 003°01'.

Length 196 m; draft 7 m.

Type: Passenger vessel. MMSI: 311213000.

Date/timePositionNaut miles runAvg speedWind from/ knotsBaromVisibWave heightAir tempDewpointWater temp
2018-Apr-26 03:18N 41°28' E 003°01'3 7.4
2018-Apr-26 02:51N 41°26' E 002°58'3 7.7
2018-Apr-26 02:25N 41°24' E 002°54'3 8.1
2018-Apr-26 02:00N 41°22' E 002°50'4 8.1
2018-Apr-26 01:30N 41°21' E 002°45'4 8.3
2018-Apr-26 01:00N 41°19' E 002°40'4 8.1
2018-Apr-26 00:30N 41°18' E 002°35'4 8.0
2018-Apr-26 00:00N 41°18' E 002°29'4 8.1
2018-Apr-25 23:30N 41°19' E 002°24'4 8.2
2018-Apr-25 23:00N 41°19' E 002°19'4 7.4
2018-Apr-25 22:30N 41°20' E 002°14'3 6.6
2018-Apr-25 22:01N 41°22' E 002°11'0 0.2
2018-Apr-25 21:15N 41°22' E 002°11'0 0.0
2018-Apr-25 20:57N 41°22' E 002°11'0 0.0
2018-Apr-25 20:27N 41°22' E 002°11'0 0.0
2018-Apr-25 19:45N 41°22' E 002°11'0 0.0
2018-Apr-25 19:27N 41°22' E 002°11'0 0.0
2018-Apr-25 18:57N 41°22' E 002°11'0 0.0
2018-Apr-25 18:15N 41°22' E 002°11'0 0.0
2018-Apr-25 17:57N 41°22' E 002°11'0 0.0
2018-Apr-25 17:21N 41°22' E 002°11'0 0.0
2018-Apr-25 16:51N 41°22' E 002°11'0 0.0
2018-Apr-25 15:39N 41°22' E 002°11'0 0.0
2018-Apr-25 15:27N 41°22' E 002°11'0 0.0
2018-Apr-25 14:57N 41°22' E 002°11'0 0.0
2018-Apr-25 14:27N 41°22' E 002°11'0 0.0
2018-Apr-25 13:51N 41°22' E 002°11'0 0.0
2018-Apr-25 13:21N 41°22' E 002°11'0 0.0
2018-Apr-25 11:57N 41°22' E 002°11'0 0.0
2018-Apr-25 11:09N 41°22' E 002°11'0 0.0
2018-Apr-25 10:57N 41°22' E 002°11'0 0.0
2018-Apr-25 05:15N 41°22' E 002°11'0 0.0
2018-Apr-25 03:03N 41°22' E 002°11'0 0.0
2018-Apr-25 02:57N 41°22' E 002°11'0 0.0
2018-Apr-24 18:45N 41°22' E 002°11'0 0.0
2018-Apr-24 17:45N 41°22' E 002°11'0 0.0
2018-Apr-24 15:33N 41°22' E 002°11'0 0.0
2018-Apr-24 15:21N 41°22' E 002°11'0 0.0
2018-Apr-24 14:51N 41°22' E 002°11'0 0.0
2018-Apr-24 14:27N 41°22' E 002°11'0 0.0
2018-Apr-24 13:57N 41°22' E 002°11'0 0.0
2018-Apr-24 13:15N 41°22' E 002°11'0 0.0
2018-Apr-24 12:51N 41°22' E 002°11'0 0.0
2018-Apr-24 12:27N 41°22' E 002°11'0 0.0
2018-Apr-24 11:57N 41°22' E 002°11'0 0.0
2018-Apr-24 11:27N 41°22' E 002°11'0 0.0
2018-Apr-24 10:57N 41°22' E 002°11'0 0.0
2018-Apr-24 10:27N 41°22' E 002°11'0 0.0
2018-Apr-24 09:57N 41°22' E 002°11'0 0.0
2018-Apr-24 09:27N 41°22' E 002°11'0 0.0
2018-Apr-24 08:57N 41°22' E 002°11'0 0.0
2018-Apr-24 08:27N 41°22' E 002°11'0 0.0
2018-Apr-24 07:51N 41°22' E 002°11'0 0.0
2018-Apr-24 07:27N 41°22' E 002°11'0 0.0
2018-Apr-24 06:51N 41°22' E 002°11'0 0.0
2018-Apr-24 01:33N 41°22' E 002°11'0 0.0
2018-Apr-24 01:27N 41°22' E 002°11'0 0.0
2018-Apr-24 00:57N 41°22' E 002°11'0 0.0
2018-Apr-24 00:27N 41°22' E 002°11'0 0.0
2018-Apr-23 23:57N 41°22' E 002°11'0 0.0
2018-Apr-23 23:27N 41°22' E 002°11'0 0.0
2018-Apr-23 22:57N 41°22' E 002°11'0 0.0
2018-Apr-23 22:27N 41°22' E 002°11'0 0.0
2018-Apr-23 21:51N 41°22' E 002°11'0 0.0
2018-Apr-23 21:27N 41°22' E 002°11'0 0.0
2018-Apr-23 20:39N 41°22' E 002°11'0 0.0
2018-Apr-23 20:27N 41°22' E 002°11'0 0.0
2018-Apr-23 19:57N 41°22' E 002°11'0 0.0
2018-Apr-23 19:03N 41°22' E 002°11'0 0.0
2018-Apr-23 18:57N 41°22' E 002°11'0 0.0
2018-Apr-23 18:27N 41°22' E 002°11'0 0.0
2018-Apr-23 17:57N 41°22' E 002°11'0 0.0
2018-Apr-23 17:21N 41°22' E 002°11'0 0.0
2018-Apr-23 16:57N 41°22' E 002°11'0 0.0
2018-Apr-23 16:27N 41°22' E 002°11'0 0.0
2018-Apr-23 15:51N 41°22' E 002°11'0 0.0
2018-Apr-23 15:27N 41°22' E 002°11'0 0.0
2018-Apr-23 14:57N 41°22' E 002°11'0 0.0
2018-Apr-23 14:27N 41°22' E 002°11'0 0.0
2018-Apr-23 13:51N 41°22' E 002°11'0 0.0
2018-Apr-23 13:27N 41°22' E 002°11'0 0.0
2018-Apr-23 12:57N 41°22' E 002°11'0 0.0
2018-Apr-23 12:27N 41°22' E 002°11'0 0.0
2018-Apr-23 11:57N 41°22' E 002°11'0 0.0
2018-Apr-23 11:21N 41°22' E 002°11'0 0.0
2018-Apr-23 10:57N 41°22' E 002°11'0 0.0
2018-Apr-23 10:27N 41°22' E 002°11'0 0.0
2018-Apr-23 09:57N 41°22' E 002°11'0 0.0
2018-Apr-23 09:27N 41°22' E 002°11'0 0.0
2018-Apr-23 08:57N 41°22' E 002°11'0 0.0
2018-Apr-23 08:27N 41°22' E 002°11'0 0.0
2018-Apr-23 07:51N 41°22' E 002°11'0 0.0
2018-Apr-23 07:27N 41°22' E 002°11'0 0.0
2018-Apr-23 06:57N 41°22' E 002°11'0 0.0
2018-Apr-23 06:27N 41°22' E 002°11'0 0.0
2018-Apr-23 05:45N 41°22' E 002°11'0 0.0
2018-Apr-23 04:39N 41°22' E 002°11'0 0.0
2018-Apr-23 04:27N 41°22' E 002°11'0 0.0
2018-Apr-23 03:09N 41°22' E 002°11'0 0.0
2018-Apr-23 00:09N 41°22' E 002°11'0 0.0
2018-Apr-22 23:51N 41°22' E 002°11'0 0.0
2018-Apr-22 23:27N 41°22' E 002°11'0 0.0
2018-Apr-22 22:57N 41°22' E 002°11'0 0.0
2018-Apr-22 22:27N 41°22' E 002°11'0 0.0
2018-Apr-22 21:57N 41°22' E 002°11'0 0.0
2018-Apr-22 21:27N 41°22' E 002°11'0 0.0
2018-Apr-22 20:45N 41°22' E 002°11'0 0.0
2018-Apr-22 20:27N 41°22' E 002°11'0 0.0
2018-Apr-22 19:27N 41°22' E 002°11'0 0.0
2018-Apr-22 18:45N 41°22' E 002°11'0 0.0
2018-Apr-22 18:21N 41°22' E 002°11'0 0.0
2018-Apr-22 17:57N 41°22' E 002°11'0 0.0
2018-Apr-22 17:27N 41°22' E 002°11'0 0.0
2018-Apr-22 16:45N 41°22' E 002°11'0 0.0
2018-Apr-22 16:21N 41°22' E 002°11'0 0.0
2018-Apr-22 15:57N 41°22' E 002°11'0 0.0
2018-Apr-22 15:27N 41°22' E 002°11'0 0.0
2018-Apr-22 13:45N 41°22' E 002°11'0 0.0
2018-Apr-22 13:21N 41°22' E 002°11'0 0.0
2018-Apr-22 12:57N 41°22' E 002°11'0 0.0
2018-Apr-22 12:27N 41°22' E 002°11'0 0.0
2018-Apr-22 11:57N 41°22' E 002°11'0 0.0
2018-Apr-22 11:27N 41°22' E 002°11'0 0.0
2018-Apr-22 11:01N 41°22' E 002°11'0 0.0
2018-Apr-22 10:29N 41°22' E 002°11'0 0.0
2018-Apr-22 09:11N 41°22' E 002°11'0 0.0
2018-Apr-22 08:52N 41°22' E 002°11'0 0.0
2018-Apr-22 08:22N 41°22' E 002°11'0 0.0
2018-Apr-22 07:46N 41°22' E 002°11'0 0.0
2018-Apr-22 07:28N 41°22' E 002°11'0 0.0
2018-Apr-22 06:58N 41°22' E 002°11'0 0.0
2018-Apr-22 06:27N 41°22' E 002°11'1 3.3
2018-Apr-22 06:01N 41°21' E 002°12'5 9.1
2018-Apr-22 05:31N 41°18' E 002°16'4 8.1
2018-Apr-22 04:59N 41°14' E 002°19'4 9.0
2018-Apr-22 04:31N 41°10' E 002°18'4 8.8
2018-Apr-22 04:01N 41°05' E 002°18'5 8.4
2018-Apr-22 03:21N 41°00' E 002°16'202 9.3
2018-Apr-21 05:33N 38°09' W 000°02'1 9.7
2018-Apr-21 05:28N 38°08' W 000°02'4 9.4
2018-Apr-21 05:01N 38°04' W 000°05'5 9.1
2018-Apr-21 04:29N 38°00' W 000°08'11 9.3
2018-Apr-21 03:16N 37°51' W 000°17'7 9.3
2018-Apr-21 02:34N 37°45' W 000°21'1 9.3
2018-Apr-21 02:28N 37°44' W 000°22'4 9.4
2018-Apr-21 02:01N 37°41' W 000°25'5 9.3
2018-Apr-21 01:31N 37°37' W 000°28'4 8.9
2018-Apr-21 01:01N 37°33' W 000°31'4 8.6
2018-Apr-21 00:31N 37°31' W 000°35'5 9.3
2018-Apr-21 00:01N 37°30' W 000°41'5 8.7
2018-Apr-20 23:28N 37°30' W 000°47'11 8.4
2018-Apr-20 22:11N 37°34' W 000°59'  
2018-Apr-18 15:15N 37°36' W 000°59'9 9.1
2018-Apr-18 14:19N 37°28' W 001°05'310.6
2018-Apr-18 13:59N 37°26' W 001°07'  

Dump ship's entire track history